createdAt,value
2019-04-07T00:01:19.393Z,12.18
2019-04-07T00:01:58.355Z,12.18
2019-04-07T00:02:58.357Z,12.06
2019-04-07T00:03:58.600Z,12.17
2019-04-07T00:05:09.335Z,12.13
2019-04-07T00:05:58.600Z,12.00
2019-04-07T00:07:19.599Z,12.07
2019-04-07T00:07:59.069Z,12.17
2019-04-07T00:08:58.430Z,12.13
2019-04-07T00:09:58.548Z,12.27
2019-04-07T00:10:58.933Z,12.28
2019-04-07T00:11:59.075Z,12.29
2019-04-07T00:13:19.528Z,12.27
2019-04-07T00:13:58.924Z,12.12
2019-04-07T00:14:58.512Z,11.99
2019-04-07T00:15:58.974Z,12.02
2019-04-07T00:16:58.566Z,11.90
2019-04-07T00:17:59.209Z,11.94
2019-04-07T00:19:19.584Z,12.02
2019-04-07T00:19:58.666Z,12.00
2019-04-07T00:20:58.630Z,11.75
2019-04-07T00:21:59.271Z,11.65
2019-04-07T00:22:58.614Z,11.72
2019-04-07T00:23:58.646Z,11.52
2019-04-07T00:25:19.696Z,11.45
2019-04-07T00:25:58.917Z,11.50
2019-04-07T00:26:58.688Z,11.37
2019-04-07T00:27:58.726Z,11.40
2019-04-07T00:28:58.756Z,11.41
2019-04-07T00:29:59.911Z,11.43
2019-04-07T00:31:20.468Z,11.44
2019-04-07T00:31:58.786Z,11.51
2019-04-07T00:32:58.784Z,11.52
2019-04-07T00:33:59.301Z,11.50
2019-04-07T00:34:58.812Z,11.51
2019-04-07T00:35:59.263Z,11.57
2019-04-07T00:37:19.850Z,11.62
2019-04-07T00:37:59.447Z,11.70
2019-04-07T00:38:59.393Z,11.72
2019-04-07T00:39:58.978Z,11.75
2019-04-07T00:40:59.239Z,11.78
2019-04-07T00:41:59.212Z,11.72
2019-04-07T00:43:19.990Z,11.81
2019-04-07T00:43:59.446Z,11.73
2019-04-07T00:44:59.657Z,11.72
2019-04-07T00:45:58.965Z,11.73
2019-04-07T00:46:59.018Z,11.77
2019-04-07T00:47:59.362Z,11.78
2019-04-07T00:49:20.543Z,11.75
2019-04-07T00:49:59.023Z,11.80
2019-04-07T00:50:59.252Z,11.80
2019-04-07T00:51:59.595Z,11.73
2019-04-07T00:52:59.103Z,11.78
2019-04-07T00:53:59.621Z,11.77
2019-04-07T00:55:20.112Z,11.78
2019-04-07T00:55:59.433Z,11.78
2019-04-07T00:56:59.417Z,11.75
2019-04-07T00:57:59.462Z,11.68
2019-04-07T00:58:59.142Z,11.69
2019-04-07T00:59:59.460Z,11.66
2019-04-07T01:01:20.681Z,11.57
2019-04-07T01:01:59.230Z,11.41
2019-04-07T01:02:59.434Z,11.41
2019-04-07T01:03:59.783Z,11.45
2019-04-07T01:04:59.265Z,11.27
2019-04-07T01:05:59.236Z,11.26
2019-04-07T01:07:20.313Z,10.93
2019-04-07T01:07:59.280Z,10.94
2019-04-07T01:08:59.318Z,10.92
2019-04-07T01:09:59.587Z,10.99
2019-04-07T01:10:59.327Z,10.99
2019-04-07T01:11:59.551Z,10.94
2019-04-07T01:13:20.823Z,11.02
2019-04-07T01:13:59.356Z,10.99
2019-04-07T01:14:59.624Z,11.07
2019-04-07T01:15:59.394Z,11.12
2019-04-07T01:16:59.450Z,11.07
2019-04-07T01:17:59.928Z,11.12
2019-04-07T01:19:21.088Z,11.19
2019-04-07T01:19:59.769Z,11.22
2019-04-07T01:20:59.523Z,11.27
2019-04-07T01:21:59.898Z,11.29
2019-04-07T01:22:59.498Z,11.41
2019-04-07T01:23:59.536Z,11.30
2019-04-07T01:25:20.546Z,11.30
2019-04-07T01:25:59.532Z,11.40
2019-04-07T01:27:00.183Z,11.36
2019-04-07T01:27:59.581Z,11.30
2019-04-07T01:29:00.195Z,11.41
2019-04-07T01:29:59.605Z,11.43
2019-04-07T01:31:20.943Z,11.40
2019-04-07T01:31:59.621Z,11.45
2019-04-07T01:33:00.030Z,11.40
2019-04-07T01:33:59.636Z,11.23
2019-04-07T01:34:59.751Z,11.15
2019-04-07T01:35:59.846Z,11.15
2019-04-07T01:37:20.963Z,11.15
2019-04-07T01:37:59.944Z,11.14
2019-04-07T01:38:59.977Z,11.15
2019-04-07T01:40:00.130Z,11.18
2019-04-07T01:40:59.913Z,11.26
2019-04-07T01:41:59.774Z,11.30
2019-04-07T01:43:20.798Z,11.37
2019-04-07T01:44:00.156Z,11.23
2019-04-07T01:44:59.976Z,11.10
2019-04-07T01:45:59.914Z,11.10
2019-04-07T01:46:59.833Z,11.04
2019-04-07T01:47:59.832Z,11.08
2019-04-07T01:49:21.033Z,10.99
2019-04-07T01:50:00.462Z,11.00
2019-04-07T01:50:59.881Z,11.12
2019-04-07T01:51:59.926Z,11.12
2019-04-07T01:52:59.904Z,11.15
2019-04-07T01:53:59.950Z,11.10
2019-04-07T01:55:20.948Z,11.00
2019-04-07T01:56:00.266Z,10.94
2019-04-07T01:57:00.235Z,10.92
2019-04-07T01:57:59.979Z,10.84
2019-04-07T01:59:00.004Z,10.86
2019-04-07T02:00:00.705Z,10.93
2019-04-07T02:01:21.035Z,10.90
2019-04-07T02:02:00.471Z,10.93
2019-04-07T02:03:00.044Z,10.93
2019-04-07T02:04:00.074Z,10.90
2019-04-07T02:05:00.152Z,10.84
2019-04-07T02:06:02.790Z,10.87
2019-04-07T02:07:22.146Z,10.94
2019-04-07T02:08:00.141Z,10.89
2019-04-07T02:09:00.796Z,11.00
2019-04-07T02:10:00.138Z,11.00
2019-04-07T02:11:00.150Z,10.96
2019-04-07T02:12:00.592Z,10.97
2019-04-07T02:13:21.461Z,10.92
2019-04-07T02:14:00.469Z,10.92
2019-04-07T02:15:00.951Z,10.94
2019-04-07T02:16:00.276Z,10.94
2019-04-07T02:17:00.928Z,10.79
2019-04-07T02:18:00.871Z,10.79
2019-04-07T02:19:21.624Z,10.76
2019-04-07T02:20:00.333Z,10.68
2019-04-07T02:21:00.301Z,10.64
2019-04-07T02:22:00.390Z,10.57
2019-04-07T02:23:00.826Z,10.51
2019-04-07T02:24:00.320Z,10.40
2019-04-07T02:25:21.906Z,10.56
2019-04-07T02:26:00.879Z,10.54
2019-04-07T02:27:00.885Z,10.67
2019-04-07T02:28:01.066Z,10.64
2019-04-07T02:29:00.409Z,10.79
2019-04-07T02:30:00.509Z,10.71
2019-04-07T02:31:22.459Z,10.69
2019-04-07T02:32:01.180Z,10.76
2019-04-07T02:33:00.520Z,10.79
2019-04-07T02:34:00.490Z,10.71
2019-04-07T02:35:01.383Z,10.76
2019-04-07T02:36:13.588Z,10.69
2019-04-07T02:37:22.549Z,10.79
2019-04-07T02:38:00.645Z,10.74
2019-04-07T02:39:00.546Z,10.69
2019-04-07T02:40:00.703Z,10.72
2019-04-07T02:41:00.565Z,10.78
2019-04-07T02:42:00.625Z,10.81
2019-04-07T02:43:21.609Z,10.76
2019-04-07T02:44:01.499Z,10.79
2019-04-07T02:45:01.394Z,10.78
2019-04-07T02:46:00.719Z,10.75
2019-04-07T02:47:00.873Z,10.75
2019-04-07T02:48:01.197Z,10.67
2019-04-07T02:49:21.721Z,10.59
2019-04-07T02:50:01.610Z,10.57
2019-04-07T02:51:01.269Z,10.71
2019-04-07T02:52:00.744Z,10.69
2019-04-07T02:53:01.521Z,10.69
2019-04-07T02:54:00.834Z,10.75
2019-04-07T02:55:21.940Z,10.63
2019-04-07T02:56:01.869Z,10.79
2019-04-07T02:57:00.806Z,10.81
2019-04-07T02:58:01.547Z,10.79
2019-04-07T02:59:01.332Z,10.78
2019-04-07T03:00:01.135Z,10.78
2019-04-07T03:01:22.084Z,10.76
2019-04-07T03:02:00.860Z,10.71
2019-04-07T03:03:01.635Z,10.72
2019-04-07T03:04:01.801Z,10.75
2019-04-07T03:05:02.033Z,10.76
2019-04-07T03:06:01.823Z,10.71
2019-04-07T03:07:21.940Z,10.74
2019-04-07T03:08:01.591Z,10.81
2019-04-07T03:09:00.952Z,10.78
2019-04-07T03:10:00.979Z,10.74
2019-04-07T03:11:01.911Z,10.74
2019-04-07T03:12:01.694Z,10.79
2019-04-07T03:13:22.768Z,10.79
2019-04-07T03:14:01.040Z,10.89
2019-04-07T03:15:01.083Z,10.79
2019-04-07T03:16:01.955Z,10.63
2019-04-07T03:17:02.198Z,10.64
2019-04-07T03:18:01.102Z,10.63
2019-04-07T03:19:22.193Z,10.71
2019-04-07T03:20:01.101Z,10.68
2019-04-07T03:21:01.234Z,10.81
2019-04-07T03:22:01.190Z,10.81
2019-04-07T03:23:01.928Z,10.78
2019-04-07T03:24:01.183Z,10.90
2019-04-07T03:25:22.185Z,10.93
2019-04-07T03:26:02.211Z,10.93
2019-04-07T03:27:01.235Z,10.94
2019-04-07T03:28:01.232Z,10.84
2019-04-07T03:29:01.410Z,10.93
2019-04-07T03:30:01.529Z,10.92
2019-04-07T03:31:23.906Z,10.90
2019-04-07T03:32:02.757Z,10.86
2019-04-07T03:33:05.200Z,10.72
2019-04-07T03:34:03.784Z,10.81
2019-04-07T03:35:03.160Z,10.76
2019-04-07T03:36:03.331Z,10.86
2019-04-07T03:37:34.457Z,10.81
2019-04-07T03:38:02.028Z,10.86
2019-04-07T03:39:01.974Z,10.90
2019-04-07T03:40:02.579Z,10.86
2019-04-07T03:41:01.448Z,11.00
2019-04-07T03:42:01.431Z,11.00
2019-04-07T03:43:22.445Z,11.15
2019-04-07T03:44:01.464Z,11.14
2019-04-07T03:45:01.455Z,11.17
2019-04-07T03:46:01.487Z,11.19
2019-04-07T03:47:01.573Z,11.25
2019-04-07T03:48:02.206Z,11.25
2019-04-07T03:49:23.372Z,11.27
2019-04-07T03:50:01.681Z,11.26
2019-04-07T03:51:01.593Z,11.27
2019-04-07T03:52:01.952Z,11.30
2019-04-07T03:53:01.737Z,11.25
2019-04-07T03:54:02.797Z,11.33
2019-04-07T03:55:22.795Z,11.37
2019-04-07T03:56:01.874Z,11.32
2019-04-07T03:57:01.611Z,11.27
2019-04-07T03:58:01.749Z,11.27
2019-04-07T03:59:01.644Z,11.25
2019-04-07T04:00:02.234Z,11.35
2019-04-07T04:01:22.691Z,11.36
2019-04-07T04:02:01.735Z,11.37
2019-04-07T04:03:02.660Z,11.40
2019-04-07T04:04:02.212Z,11.37
2019-04-07T04:05:02.905Z,11.30
2019-04-07T04:06:02.603Z,11.27
2019-04-07T04:07:31.555Z,11.25
2019-04-07T04:08:02.161Z,11.37
2019-04-07T04:09:02.062Z,11.33
2019-04-07T04:10:01.872Z,11.29
2019-04-07T04:11:02.675Z,11.36
2019-04-07T04:12:01.829Z,11.30
2019-04-07T04:13:23.112Z,11.29
2019-04-07T04:14:02.842Z,11.27
2019-04-07T04:15:01.989Z,11.35
2019-04-07T04:16:02.914Z,11.27
2019-04-07T04:17:02.075Z,11.22
2019-04-07T04:18:01.919Z,11.15
2019-04-07T04:19:22.960Z,11.12
2019-04-07T04:20:02.301Z,11.12
2019-04-07T04:21:01.960Z,11.15
2019-04-07T04:22:02.153Z,11.12
2019-04-07T04:23:01.987Z,11.12
2019-04-07T04:24:01.995Z,11.02
2019-04-07T04:25:23.222Z,10.99
2019-04-07T04:26:02.508Z,10.79
2019-04-07T04:27:02.041Z,10.79
2019-04-07T04:28:02.049Z,10.79
2019-04-07T04:29:02.611Z,10.75
2019-04-07T04:30:02.962Z,10.78
2019-04-07T04:31:23.115Z,10.76
2019-04-07T04:32:02.109Z,10.75
2019-04-07T04:33:02.269Z,10.82
2019-04-07T04:34:02.166Z,10.86
2019-04-07T04:35:03.194Z,10.82
2019-04-07T04:36:02.756Z,10.75
2019-04-07T04:37:36.125Z,10.79
2019-04-07T04:38:02.203Z,10.90
2019-04-07T04:39:02.209Z,10.84
2019-04-07T04:40:02.222Z,10.97
2019-04-07T04:41:02.834Z,10.94
2019-04-07T04:42:02.255Z,10.93
2019-04-07T04:43:23.464Z,10.94
2019-04-07T04:44:02.287Z,10.94
2019-04-07T04:45:02.574Z,10.94
2019-04-07T04:46:03.138Z,10.92
2019-04-07T04:47:02.819Z,10.96
2019-04-07T04:48:02.733Z,10.94
2019-04-07T04:49:23.426Z,10.92
2019-04-07T04:50:02.527Z,10.90
2019-04-07T04:51:03.121Z,10.82
2019-04-07T04:52:03.063Z,10.79
2019-04-07T04:53:02.412Z,10.68
2019-04-07T04:54:02.418Z,10.54
2019-04-07T04:55:24.263Z,10.59
2019-04-07T04:56:02.995Z,10.57
2019-04-07T04:57:05.435Z,10.56
2019-04-07T04:58:02.500Z,10.41
2019-04-07T04:59:02.481Z,10.41
2019-04-07T05:00:02.521Z,10.40
2019-04-07T05:01:23.518Z,10.48
2019-04-07T05:02:02.707Z,10.42
2019-04-07T05:03:02.739Z,10.42
2019-04-07T05:04:02.586Z,10.49
2019-04-07T05:05:02.685Z,10.42
2019-04-07T05:06:03.585Z,10.40
2019-04-07T05:07:24.437Z,10.40
2019-04-07T05:08:04.512Z,10.41
2019-04-07T05:09:03.391Z,10.38
2019-04-07T05:10:02.756Z,10.44
2019-04-07T05:11:03.118Z,10.44
2019-04-07T05:12:04.805Z,10.35
2019-04-07T05:13:23.682Z,10.31
2019-04-07T05:14:02.712Z,10.34
2019-04-07T05:15:02.695Z,10.31
2019-04-07T05:16:02.761Z,10.34
2019-04-07T05:17:02.730Z,10.35
2019-04-07T05:18:02.792Z,10.30
2019-04-07T05:19:23.783Z,10.31
2019-04-07T05:20:02.923Z,10.31
2019-04-07T05:21:03.125Z,10.41
2019-04-07T05:22:02.789Z,10.41
2019-04-07T05:23:03.052Z,10.46
2019-04-07T05:24:04.224Z,10.48
2019-04-07T05:25:24.933Z,10.46
2019-04-07T05:26:03.590Z,10.42
2019-04-07T05:27:03.222Z,10.40
2019-04-07T05:28:03.753Z,10.48
2019-04-07T05:29:03.336Z,10.51
2019-04-07T05:30:03.464Z,10.49
2019-04-07T05:31:24.651Z,10.51
2019-04-07T05:32:03.250Z,10.44
2019-04-07T05:33:03.499Z,10.42
2019-04-07T05:34:03.128Z,10.48
2019-04-07T05:35:03.192Z,10.46
2019-04-07T05:36:03.737Z,10.42
2019-04-07T05:37:24.267Z,10.42
2019-04-07T05:38:05.665Z,10.37
2019-04-07T05:39:03.271Z,10.30
2019-04-07T05:40:03.968Z,10.10
2019-04-07T05:41:03.310Z,9.99
2019-04-07T05:42:03.532Z,9.89
2019-04-07T05:43:24.247Z,9.89
2019-04-07T05:44:03.513Z,9.84
2019-04-07T05:45:03.152Z,9.95
2019-04-07T05:46:05.873Z,9.94
2019-04-07T05:47:03.285Z,9.92
2019-04-07T05:48:03.253Z,10.15
2019-04-07T05:49:24.412Z,10.15
2019-04-07T05:50:05.091Z,10.23
2019-04-07T05:51:03.453Z,10.26
2019-04-07T05:52:05.668Z,10.34
2019-04-07T05:53:03.248Z,10.30
2019-04-07T05:54:03.598Z,10.37
2019-04-07T05:55:24.525Z,10.46
2019-04-07T05:56:03.283Z,10.54
2019-04-07T05:57:03.343Z,10.61
2019-04-07T05:58:05.577Z,10.68
2019-04-07T05:59:03.312Z,10.71
2019-04-07T06:00:04.233Z,10.79
2019-04-07T06:01:24.607Z,10.81
2019-04-07T06:02:03.889Z,10.71
2019-04-07T06:03:06.624Z,10.64
2019-04-07T06:04:03.378Z,10.68
2019-04-07T06:05:04.104Z,10.68
2019-04-07T06:06:04.020Z,10.79
2019-04-07T06:07:28.749Z,10.82
2019-04-07T06:08:21.289Z,10.78
2019-04-07T06:09:04.004Z,10.79
2019-04-07T06:10:03.522Z,10.92
2019-04-07T06:11:04.133Z,10.99
2019-04-07T06:12:07.977Z,10.99
2019-04-07T06:13:24.760Z,11.04
2019-04-07T06:14:04.021Z,11.04
2019-04-07T06:15:04.166Z,11.10
2019-04-07T06:16:04.177Z,11.04
2019-04-07T06:17:04.840Z,11.08
2019-04-07T06:18:04.093Z,11.07
2019-04-07T06:19:24.973Z,11.10
2019-04-07T06:20:03.717Z,10.99
2019-04-07T06:21:03.916Z,11.12
2019-04-07T06:22:03.602Z,11.10
2019-04-07T06:23:03.900Z,11.14
2019-04-07T06:24:03.630Z,11.19
2019-04-07T06:25:25.107Z,11.23
2019-04-07T06:26:06.497Z,11.22
2019-04-07T06:27:04.343Z,11.23
2019-04-07T06:28:04.238Z,11.18
2019-04-07T06:29:03.713Z,11.25
2019-04-07T06:30:04.065Z,11.26
2019-04-07T06:31:26.321Z,11.27
2019-04-07T06:32:05.237Z,11.27
2019-04-07T06:33:05.502Z,11.29
2019-04-07T06:34:04.226Z,11.33
2019-04-07T06:35:03.926Z,11.30
2019-04-07T06:36:03.856Z,11.29
2019-04-07T06:37:28.823Z,11.29
2019-04-07T06:38:06.690Z,11.23
2019-04-07T06:39:03.841Z,11.23
2019-04-07T06:40:04.670Z,11.22
2019-04-07T06:41:03.879Z,11.27
2019-04-07T06:42:03.902Z,11.27
2019-04-07T06:43:24.913Z,11.32
2019-04-07T06:44:12.721Z,11.25
2019-04-07T06:45:04.087Z,11.27
2019-04-07T06:46:03.947Z,11.26
2019-04-07T06:47:04.601Z,11.35
2019-04-07T06:48:07.472Z,11.33
2019-04-07T06:49:28.336Z,11.40
2019-04-07T06:50:05.637Z,11.41
2019-04-07T06:51:04.027Z,11.51
2019-04-07T06:52:04.810Z,11.55
2019-04-07T06:53:04.425Z,11.59
2019-04-07T06:54:04.730Z,11.60
2019-04-07T06:55:27.608Z,11.62
2019-04-07T06:56:05.007Z,11.60
2019-04-07T06:57:05.976Z,11.55
2019-04-07T06:58:06.117Z,11.55
2019-04-07T06:59:04.586Z,11.59
2019-04-07T07:00:04.140Z,11.62
2019-04-07T07:01:26.476Z,11.65
2019-04-07T07:02:04.280Z,11.70
2019-04-07T07:03:04.409Z,11.69
2019-04-07T07:04:08.628Z,11.70
2019-04-07T07:05:04.230Z,11.73
2019-04-07T07:06:04.758Z,11.72
2019-04-07T07:07:25.251Z,11.81
2019-04-07T07:08:04.256Z,11.91
2019-04-07T07:09:04.410Z,11.88
2019-04-07T07:10:06.218Z,11.86
2019-04-07T07:11:07.686Z,11.90
2019-04-07T07:12:05.035Z,12.00
2019-04-07T07:13:29.218Z,11.90
2019-04-07T07:14:04.334Z,12.00
2019-04-07T07:15:04.569Z,12.02
2019-04-07T07:16:07.925Z,12.13
2019-04-07T07:17:04.376Z,12.07
2019-04-07T07:18:04.617Z,12.13
2019-04-07T07:19:27.433Z,12.27
2019-04-07T07:20:05.687Z,12.28
2019-04-07T07:21:05.015Z,12.31
2019-04-07T07:22:07.731Z,12.45
2019-04-07T07:23:04.718Z,12.47
2019-04-07T07:24:04.940Z,12.53
2019-04-07T07:25:26.602Z,12.58
2019-04-07T07:26:04.512Z,12.61
2019-04-07T07:27:07.200Z,12.65
2019-04-07T07:28:04.574Z,12.76
2019-04-07T07:29:06.463Z,12.83
2019-04-07T07:30:04.583Z,12.90
2019-04-07T07:31:26.570Z,12.93
2019-04-07T07:32:04.946Z,12.97
2019-04-07T07:33:07.311Z,13.04
2019-04-07T07:34:05.044Z,13.09
2019-04-07T07:35:05.098Z,13.09
2019-04-07T07:36:04.687Z,13.20
2019-04-07T07:37:26.816Z,13.27
2019-04-07T07:38:04.923Z,13.22
2019-04-07T07:39:08.572Z,13.33
2019-04-07T07:40:06.871Z,13.35
2019-04-07T07:41:04.842Z,13.42
2019-04-07T07:42:04.726Z,13.41
2019-04-07T07:43:27.981Z,13.62
2019-04-07T07:44:07.596Z,13.75
2019-04-07T07:45:08.126Z,13.78
2019-04-07T07:46:05.518Z,13.95
2019-04-07T07:47:04.800Z,13.90
2019-04-07T07:48:05.365Z,14.07
2019-04-07T07:49:25.901Z,14.15
2019-04-07T07:50:05.400Z,14.23
2019-04-07T07:51:07.173Z,14.29
2019-04-07T07:52:04.967Z,14.47
2019-04-07T07:53:04.891Z,14.41
2019-04-07T07:54:05.531Z,14.35
2019-04-07T07:55:26.456Z,14.36
2019-04-07T07:56:08.493Z,14.36
2019-04-07T07:57:05.005Z,14.35
2019-04-07T07:58:04.967Z,14.50
2019-04-07T07:59:06.106Z,14.45
2019-04-07T08:00:06.938Z,14.50
2019-04-07T08:01:26.063Z,14.59
2019-04-07T08:02:05.050Z,14.63
2019-04-07T08:03:05.687Z,14.70
2019-04-07T08:04:06.185Z,14.73
2019-04-07T08:05:05.318Z,14.77
2019-04-07T08:06:08.024Z,14.79
2019-04-07T08:07:26.827Z,14.85
2019-04-07T08:08:05.778Z,14.86
2019-04-07T08:09:11.961Z,14.92
2019-04-07T08:10:05.146Z,14.94
2019-04-07T08:11:05.576Z,14.94
2019-04-07T08:12:05.221Z,15.02
2019-04-07T08:13:26.226Z,14.86
2019-04-07T08:14:05.211Z,14.91
2019-04-07T08:15:07.994Z,14.89
2019-04-07T08:16:05.264Z,14.78
2019-04-07T08:17:05.473Z,14.81
2019-04-07T08:18:07.643Z,14.81
2019-04-07T08:19:29.415Z,14.86
2019-04-07T08:20:05.657Z,14.88
2019-04-07T08:21:05.535Z,14.86
2019-04-07T08:22:07.631Z,14.81
2019-04-07T08:23:05.413Z,14.81
2019-04-07T08:24:05.377Z,14.84
2019-04-07T08:25:26.412Z,14.88
2019-04-07T08:26:05.420Z,14.82
2019-04-07T08:27:06.299Z,14.84
2019-04-07T08:28:06.063Z,14.89
2019-04-07T08:29:06.731Z,14.92
2019-04-07T08:30:10.178Z,14.91
2019-04-07T08:31:26.512Z,14.89
2019-04-07T08:32:05.604Z,14.92
2019-04-07T08:33:05.537Z,14.99
2019-04-07T08:34:05.549Z,15.09
2019-04-07T08:35:05.831Z,15.24
2019-04-07T08:36:08.902Z,15.24
2019-04-07T08:37:26.589Z,15.28
2019-04-07T08:38:05.678Z,15.28
2019-04-07T08:39:06.133Z,15.24
2019-04-07T08:40:07.679Z,15.18
2019-04-07T08:41:08.745Z,15.17
2019-04-07T08:42:09.718Z,15.36
2019-04-07T08:43:27.456Z,15.37
2019-04-07T08:44:06.123Z,15.44
2019-04-07T08:45:06.306Z,15.54
2019-04-07T08:46:06.113Z,15.57
2019-04-07T08:47:06.452Z,15.67
2019-04-07T08:48:06.370Z,15.73
2019-04-07T08:49:27.530Z,15.84
2019-04-07T08:50:06.243Z,15.86
2019-04-07T08:51:05.875Z,15.91
2019-04-07T08:52:09.085Z,16.00
2019-04-07T08:53:05.877Z,16.20
2019-04-07T08:54:05.951Z,16.36
2019-04-07T08:55:28.177Z,16.41
2019-04-07T08:56:08.403Z,16.46
2019-04-07T08:57:05.899Z,16.50
2019-04-07T08:58:06.653Z,16.54
2019-04-07T08:59:08.444Z,16.58
2019-04-07T09:00:06.254Z,16.69
2019-04-07T09:01:29.634Z,16.65
2019-04-07T09:02:06.353Z,16.74
2019-04-07T09:03:11.388Z,16.72
2019-04-07T09:04:06.636Z,16.84
2019-04-07T09:05:06.590Z,16.83
2019-04-07T09:06:06.224Z,16.90
2019-04-07T09:07:27.648Z,16.90
2019-04-07T09:08:07.059Z,16.93
2019-04-07T09:09:07.837Z,16.91
2019-04-07T09:10:06.165Z,17.04
2019-04-07T09:11:06.145Z,17.02
2019-04-07T09:12:06.366Z,17.02
2019-04-07T09:13:27.684Z,17.04
2019-04-07T09:14:07.674Z,16.99
2019-04-07T09:15:09.500Z,16.96
2019-04-07T09:16:06.288Z,17.14
2019-04-07T09:17:06.223Z,17.02
2019-04-07T09:18:06.264Z,17.05
2019-04-07T09:19:27.293Z,17.19
2019-04-07T09:20:09.143Z,17.26
2019-04-07T09:21:06.317Z,17.38
2019-04-07T09:22:06.348Z,17.59
2019-04-07T09:23:06.992Z,17.64
2019-04-07T09:24:07.113Z,17.78
2019-04-07T09:25:28.254Z,17.76
2019-04-07T09:26:09.487Z,17.97
2019-04-07T09:27:06.433Z,18.04
2019-04-07T09:28:06.494Z,18.04
2019-04-07T09:29:06.525Z,18.07
2019-04-07T09:30:08.976Z,17.89
2019-04-07T09:31:28.140Z,18.07
2019-04-07T09:32:06.575Z,18.05
2019-04-07T09:33:07.092Z,17.87
2019-04-07T09:34:07.048Z,17.79
2019-04-07T09:35:07.247Z,17.72
2019-04-07T09:36:06.930Z,17.80
2019-04-07T09:37:28.216Z,17.78
2019-04-07T09:38:07.992Z,17.86
2019-04-07T09:39:06.777Z,17.85
2019-04-07T09:40:06.830Z,17.80
2019-04-07T09:41:07.235Z,17.87
2019-04-07T09:42:06.706Z,17.89
2019-04-07T09:43:30.259Z,17.98
2019-04-07T09:44:06.701Z,18.07
2019-04-07T09:45:08.987Z,18.01
2019-04-07T09:46:09.309Z,18.07
2019-04-07T09:47:06.742Z,18.03
2019-04-07T09:48:07.363Z,18.16
2019-04-07T09:49:27.799Z,18.18
2019-04-07T09:50:06.830Z,18.33
2019-04-07T09:51:07.458Z,18.41
2019-04-07T09:52:10.219Z,18.50
2019-04-07T09:53:06.885Z,18.68
2019-04-07T09:54:06.988Z,18.78
2019-04-07T09:55:27.935Z,18.93
2019-04-07T09:56:09.818Z,18.93
2019-04-07T09:57:07.390Z,18.92
2019-04-07T09:58:09.264Z,18.98
2019-04-07T09:59:07.827Z,18.88
2019-04-07T10:00:08.315Z,18.92
2019-04-07T10:01:29.042Z,19.00
2019-04-07T10:02:07.038Z,19.08
2019-04-07T10:03:11.518Z,19.00
2019-04-07T10:04:07.697Z,19.14
2019-04-07T10:05:07.082Z,19.29
2019-04-07T10:06:09.867Z,19.30
2019-04-07T10:07:28.377Z,19.44
2019-04-07T10:08:07.296Z,19.58
2019-04-07T10:09:07.210Z,19.77
2019-04-07T10:10:12.463Z,19.66
2019-04-07T10:11:07.210Z,19.34
2019-04-07T10:12:08.089Z,19.40
2019-04-07T10:13:29.651Z,19.63
2019-04-07T10:14:07.910Z,19.69
2019-04-07T10:15:07.592Z,19.82
2019-04-07T10:16:08.853Z,19.94
2019-04-07T10:17:07.558Z,20.14
2019-04-07T10:18:07.685Z,20.41
2019-04-07T10:19:28.349Z,20.58
2019-04-07T10:20:07.374Z,20.72
2019-04-07T10:21:07.434Z,20.75
2019-04-07T10:22:07.423Z,20.66
2019-04-07T10:23:07.980Z,20.75
2019-04-07T10:24:07.481Z,20.95
2019-04-07T10:25:29.274Z,21.00
2019-04-07T10:26:08.230Z,21.27
2019-04-07T10:27:08.096Z,21.30
2019-04-07T10:28:10.585Z,21.48
2019-04-07T10:29:07.549Z,21.42
2019-04-07T10:30:07.905Z,21.82
2019-04-07T10:31:29.274Z,22.04
2019-04-07T10:32:07.843Z,22.26
2019-04-07T10:33:07.777Z,22.28
2019-04-07T10:34:08.200Z,22.22
2019-04-07T10:35:08.067Z,22.39
2019-04-07T10:36:07.883Z,22.32
2019-04-07T10:37:28.833Z,22.44
2019-04-07T10:38:07.754Z,22.68
2019-04-07T10:39:08.383Z,22.88
2019-04-07T10:40:16.801Z,22.96
2019-04-07T10:41:07.788Z,22.90
2019-04-07T10:42:08.655Z,22.81
2019-04-07T10:43:28.894Z,22.39
2019-04-07T10:44:08.475Z,22.29
2019-04-07T10:45:09.005Z,22.07
2019-04-07T10:46:07.928Z,22.22
2019-04-07T10:47:07.942Z,22.39
2019-04-07T10:48:08.033Z,22.55
2019-04-07T10:49:29.565Z,22.87
2019-04-07T10:50:08.945Z,22.78
2019-04-07T10:51:08.016Z,22.96
2019-04-07T10:52:08.053Z,23.10
2019-04-07T10:53:08.233Z,23.12
2019-04-07T10:54:08.173Z,23.18
2019-04-07T10:55:29.151Z,23.12
2019-04-07T10:56:08.821Z,23.28
2019-04-07T10:57:08.168Z,23.32
2019-04-07T10:58:08.284Z,23.44
2019-04-07T10:59:08.230Z,23.41
2019-04-07T11:00:08.976Z,23.25
2019-04-07T11:01:29.265Z,23.23
2019-04-07T11:02:08.366Z,23.28
2019-04-07T11:03:08.399Z,23.56
2019-04-07T11:04:08.303Z,23.59
2019-04-07T11:05:08.510Z,23.63
2019-04-07T11:06:08.371Z,23.62
2019-04-07T11:07:29.385Z,23.71
2019-04-07T11:08:08.496Z,23.69
2019-04-07T11:09:08.827Z,23.71
2019-04-07T11:10:09.224Z,23.80
2019-04-07T11:11:08.458Z,23.91
2019-04-07T11:12:08.843Z,24.03
2019-04-07T11:13:29.923Z,24.05
2019-04-07T11:14:09.622Z,24.23
2019-04-07T11:15:09.265Z,24.08
2019-04-07T11:16:09.215Z,24.23
2019-04-07T11:17:08.605Z,23.86
2019-04-07T11:18:08.761Z,23.83
2019-04-07T11:19:29.675Z,23.74
2019-04-07T11:20:09.308Z,23.77
2019-04-07T11:21:09.535Z,23.87
2019-04-07T11:22:08.726Z,24.05
2019-04-07T11:23:09.712Z,24.13
2019-04-07T11:24:08.926Z,23.91
2019-04-07T11:25:29.823Z,23.91
2019-04-07T11:26:08.878Z,24.21
2019-04-07T11:27:09.270Z,24.36
2019-04-07T11:28:08.883Z,24.55
2019-04-07T11:29:09.512Z,24.91
2019-04-07T11:30:09.652Z,24.93
2019-04-07T11:31:30.036Z,24.81
2019-04-07T11:32:10.272Z,24.43
2019-04-07T11:33:09.489Z,24.24
2019-04-07T11:34:09.030Z,24.24
2019-04-07T11:35:09.420Z,24.21
2019-04-07T11:36:11.613Z,24.54
2019-04-07T11:37:30.861Z,24.45
2019-04-07T11:38:09.240Z,24.70
2019-04-07T11:39:10.034Z,25.01
2019-04-07T11:40:09.147Z,25.47
2019-04-07T11:41:09.189Z,25.69
2019-04-07T11:42:09.194Z,25.81
2019-04-07T11:43:30.469Z,25.68
2019-04-07T11:44:09.255Z,25.69
2019-04-07T11:45:09.350Z,25.53
2019-04-07T11:46:09.301Z,25.35
2019-04-07T11:47:09.843Z,25.33
2019-04-07T11:48:10.035Z,25.38
2019-04-07T11:49:31.222Z,25.26
2019-04-07T11:50:09.424Z,25.54
2019-04-07T11:51:09.591Z,25.65
2019-04-07T11:52:09.587Z,25.66
2019-04-07T11:53:09.493Z,25.55
2019-04-07T11:54:09.702Z,25.26
2019-04-07T11:55:31.275Z,25.28
2019-04-07T11:56:11.099Z,25.50
2019-04-07T11:57:09.831Z,25.21
2019-04-07T11:58:14.855Z,25.16
2019-04-07T11:59:10.172Z,24.73
2019-04-07T12:00:09.672Z,25.08
2019-04-07T12:01:30.721Z,25.16
2019-04-07T12:02:10.433Z,25.07
2019-04-07T12:03:10.556Z,25.21
2019-04-07T12:04:09.822Z,25.41
2019-04-07T12:05:09.878Z,25.23
2019-04-07T12:06:11.595Z,25.08
2019-04-07T12:07:30.843Z,25.29
2019-04-07T12:08:10.449Z,25.22
2019-04-07T12:09:09.857Z,25.33
2019-04-07T12:10:09.887Z,25.35
2019-04-07T12:11:13.160Z,25.11
2019-04-07T12:12:10.023Z,25.08
2019-04-07T12:13:31.388Z,25.17
2019-04-07T12:14:10.673Z,24.96
2019-04-07T12:15:10.007Z,24.60
2019-04-07T12:16:10.323Z,24.05
2019-04-07T12:17:12.426Z,23.76
2019-04-07T12:18:15.020Z,23.62
2019-04-07T12:19:31.122Z,23.40
2019-04-07T12:20:10.847Z,23.21
2019-04-07T12:21:20.057Z,23.31
2019-04-07T12:22:12.864Z,23.71
2019-04-07T12:23:10.398Z,23.93
2019-04-07T12:24:10.668Z,24.16
2019-04-07T12:25:33.459Z,24.18
2019-04-07T12:26:10.256Z,24.43
2019-04-07T12:27:11.629Z,24.55
2019-04-07T12:28:14.700Z,24.63
2019-04-07T12:29:10.768Z,24.68
2019-04-07T12:30:10.356Z,24.96
2019-04-07T12:31:31.418Z,25.08
2019-04-07T12:32:10.427Z,24.84
2019-04-07T12:33:11.453Z,25.01
2019-04-07T12:34:13.869Z,25.17
2019-04-07T12:35:10.797Z,25.01
2019-04-07T12:36:10.540Z,24.89
2019-04-07T12:37:31.797Z,24.54
2019-04-07T12:38:12.306Z,24.51
2019-04-07T12:39:10.578Z,24.14
2019-04-07T12:40:10.932Z,23.68
2019-04-07T12:41:17.312Z,23.66
2019-04-07T12:42:11.313Z,23.93
2019-04-07T12:43:31.726Z,23.87
2019-04-07T12:44:11.478Z,24.02
2019-04-07T12:45:11.212Z,24.06
2019-04-07T12:46:11.164Z,24.13
2019-04-07T12:47:11.349Z,24.14
2019-04-07T12:48:11.334Z,24.24
2019-04-07T12:49:33.358Z,24.21
2019-04-07T12:50:14.724Z,24.54
2019-04-07T12:51:12.223Z,24.74
2019-04-07T12:52:11.644Z,24.84
2019-04-07T12:53:10.900Z,25.04